createdAt,value
2019-03-09T00:00:57.229Z,98.08
2019-03-09T00:01:57.254Z,98.93
2019-03-09T00:02:57.232Z,98.46
2019-03-09T00:03:57.081Z,98.93
2019-03-09T00:04:57.038Z,98.17
2019-03-09T00:05:57.196Z,98.27
2019-03-09T00:06:56.941Z,98.93
2019-03-09T00:07:56.891Z,99.50
2019-03-09T00:08:56.841Z,99.41
2019-03-09T00:09:56.941Z,99.22
2019-03-09T00:10:56.749Z,98.46
2019-03-09T00:11:56.697Z,97.60
2019-03-09T00:12:56.656Z,97.69
2019-03-09T00:13:56.608Z,99.60
2019-03-09T00:14:56.556Z,99.22
2019-03-09T00:15:56.511Z,98.74
2019-03-09T00:16:56.462Z,98.74
2019-03-09T00:17:56.418Z,99.31
2019-03-09T00:18:56.365Z,99.22
2019-03-09T00:19:56.317Z,99.99
2019-03-09T00:20:56.268Z,99.99
2019-03-09T00:21:56.223Z,99.99
2019-03-09T00:22:56.174Z,99.99
2019-03-09T00:23:56.143Z,99.99
2019-03-09T00:24:56.078Z,99.99
2019-03-09T00:25:57.092Z,99.99
2019-03-09T00:26:55.987Z,99.99
2019-03-09T00:27:55.939Z,99.99
2019-03-09T00:28:55.890Z,99.99
2019-03-09T00:29:55.844Z,99.99
2019-03-09T00:30:55.792Z,99.99
2019-03-09T00:31:55.742Z,99.99
2019-03-09T00:32:55.696Z,99.99
2019-03-09T00:33:55.648Z,99.99
2019-03-09T00:34:55.602Z,99.99
2019-03-09T00:35:55.554Z,99.99
2019-03-09T00:36:55.507Z,99.99
2019-03-09T00:37:55.463Z,99.99
2019-03-09T00:38:55.409Z,99.99
2019-03-09T00:39:55.364Z,99.99
2019-03-09T00:40:55.316Z,99.99
2019-03-09T00:41:55.274Z,99.99
2019-03-09T00:42:55.221Z,99.99
2019-03-09T00:43:55.195Z,99.99
2019-03-09T00:44:55.128Z,99.99
2019-03-09T00:45:55.078Z,99.99
2019-03-09T00:46:55.026Z,99.99
2019-03-09T00:47:54.977Z,99.99
2019-03-09T00:48:54.938Z,99.99
2019-03-09T00:49:54.885Z,99.99
2019-03-09T00:50:54.837Z,99.99
2019-03-09T00:51:54.797Z,99.99
2019-03-09T00:52:54.740Z,99.99
2019-03-09T00:53:54.692Z,99.99
2019-03-09T00:54:54.641Z,99.99
2019-03-09T00:55:54.598Z,99.99
2019-03-09T00:56:54.546Z,99.99
2019-03-09T00:57:54.500Z,99.99
2019-03-09T00:58:54.450Z,99.99
2019-03-09T00:59:54.405Z,99.99
2019-03-09T01:00:54.356Z,99.99
2019-03-09T01:01:54.309Z,99.99
2019-03-09T01:02:54.259Z,99.99
2019-03-09T01:03:54.210Z,99.99
2019-03-09T01:04:54.163Z,99.99
2019-03-09T01:05:54.117Z,99.99
2019-03-09T01:06:54.066Z,99.99
2019-03-09T01:07:54.028Z,99.99
2019-03-09T01:08:53.972Z,99.99
2019-03-09T01:09:53.922Z,99.99
2019-03-09T01:10:53.874Z,99.99
2019-03-09T01:11:53.831Z,99.99
2019-03-09T01:12:53.777Z,99.99
2019-03-09T01:13:53.728Z,99.99
2019-03-09T01:14:53.680Z,99.99
2019-03-09T01:15:53.637Z,99.99
2019-03-09T01:16:53.585Z,99.99
2019-03-09T01:17:53.536Z,99.99
2019-03-09T01:18:53.493Z,99.99
2019-03-09T01:19:53.442Z,99.99
2019-03-09T01:20:53.391Z,99.99
2019-03-09T01:21:53.352Z,99.99
2019-03-09T01:22:53.297Z,99.99
2019-03-09T01:23:53.251Z,99.99
2019-03-09T01:24:53.204Z,99.99
2019-03-09T01:25:53.153Z,99.99
2019-03-09T01:26:53.104Z,99.99
2019-03-09T01:27:53.057Z,99.99
2019-03-09T01:28:53.010Z,99.99
2019-03-09T01:29:52.961Z,99.99
2019-03-09T01:30:52.912Z,99.99
2019-03-09T01:31:52.862Z,99.99
2019-03-09T01:32:52.815Z,99.99
2019-03-09T01:33:52.769Z,99.99
2019-03-09T01:34:52.717Z,99.99
2019-03-09T01:35:52.670Z,99.99
2019-03-09T01:36:52.625Z,99.99
2019-03-09T01:37:52.573Z,99.99
2019-03-09T01:38:52.522Z,99.99
2019-03-09T01:39:52.475Z,99.99
2019-03-09T01:40:52.427Z,99.99
2019-03-09T01:41:52.402Z,99.99
2019-03-09T01:42:52.333Z,99.99
2019-03-09T01:43:52.293Z,99.99
2019-03-09T01:44:52.233Z,99.99
2019-03-09T01:45:52.186Z,99.99
2019-03-09T01:46:52.138Z,99.99
2019-03-09T01:47:52.089Z,99.99
2019-03-09T01:48:52.068Z,99.99
2019-03-09T01:49:51.997Z,99.99
2019-03-09T01:50:51.944Z,99.99
2019-03-09T01:51:51.897Z,99.99
2019-03-09T01:52:51.852Z,99.99
2019-03-09T01:53:51.805Z,99.99
2019-03-09T01:54:51.750Z,99.99
2019-03-09T01:55:51.712Z,99.99
2019-03-09T01:56:51.654Z,99.99
2019-03-09T01:57:51.605Z,99.99
2019-03-09T01:58:51.559Z,99.99
2019-03-09T01:59:51.529Z,99.99
2019-03-09T02:00:51.463Z,99.99
2019-03-09T02:01:51.414Z,99.99
2019-03-09T02:02:51.367Z,99.99
2019-03-09T02:03:51.322Z,99.99
2019-03-09T02:04:51.271Z,99.99
2019-03-09T02:05:51.222Z,99.99
2019-03-09T02:06:51.171Z,99.99
2019-03-09T02:07:51.123Z,99.99
2019-03-09T02:08:51.079Z,99.99
2019-03-09T02:09:51.028Z,99.99
2019-03-09T02:10:50.981Z,99.99
2019-03-09T02:11:50.930Z,99.99
2019-03-09T02:12:50.884Z,99.99
2019-03-09T02:13:50.832Z,99.99
2019-03-09T02:14:50.788Z,99.99
2019-03-09T02:15:50.737Z,99.99
2019-03-09T02:16:50.699Z,99.99
2019-03-09T02:17:50.646Z,99.99
2019-03-09T02:18:50.589Z,99.99
2019-03-09T02:19:50.544Z,99.99
2019-03-09T02:20:50.585Z,99.99
2019-03-09T02:21:50.498Z,99.99
2019-03-09T02:22:50.401Z,99.99
2019-03-09T02:23:50.352Z,99.99
2019-03-09T02:24:50.302Z,99.99
2019-03-09T02:25:50.252Z,99.99
2019-03-09T02:26:50.216Z,99.99
2019-03-09T02:27:50.158Z,99.99
2019-03-09T02:28:50.111Z,99.99
2019-03-09T02:29:50.066Z,99.99
2019-03-09T02:30:50.011Z,99.99
2019-03-09T02:31:49.964Z,99.99
2019-03-09T02:32:49.922Z,99.99
2019-03-09T02:33:49.880Z,99.99
2019-03-09T02:34:49.820Z,99.99
2019-03-09T02:35:49.775Z,99.99
2019-03-09T02:36:49.721Z,99.99
2019-03-09T02:37:49.680Z,99.99
2019-03-09T02:38:49.623Z,99.99
2019-03-09T02:39:49.576Z,99.99
2019-03-09T02:40:49.537Z,99.99
2019-03-09T02:41:49.478Z,99.99
2019-03-09T02:42:49.432Z,99.99
2019-03-09T02:43:49.388Z,99.99
2019-03-09T02:44:49.334Z,99.99
2019-03-09T02:45:49.286Z,99.99
2019-03-09T02:46:49.239Z,99.99
2019-03-09T02:47:49.192Z,99.99
2019-03-09T02:48:49.153Z,99.99
2019-03-09T02:49:49.095Z,99.99
2019-03-09T02:50:49.047Z,99.99
2019-03-09T02:51:49.001Z,99.99
2019-03-09T02:52:48.957Z,99.99
2019-03-09T02:53:48.900Z,99.99
2019-03-09T02:54:48.850Z,99.99
2019-03-09T02:55:48.808Z,99.99
2019-03-09T02:56:48.759Z,99.99
2019-03-09T02:57:48.707Z,99.99
2019-03-09T02:58:48.661Z,99.99
2019-03-09T02:59:48.611Z,99.99
2019-03-09T03:00:48.596Z,99.99
2019-03-09T03:01:48.518Z,99.99
2019-03-09T03:02:48.476Z,99.99
2019-03-09T03:03:48.416Z,99.99
2019-03-09T03:04:48.371Z,99.99
2019-03-09T03:05:48.326Z,99.99
2019-03-09T03:06:48.272Z,99.99
2019-03-09T03:07:48.240Z,99.99
2019-03-09T03:08:48.175Z,99.99
2019-03-09T03:09:48.158Z,99.99
2019-03-09T03:10:48.078Z,99.99
2019-03-09T03:11:48.035Z,99.99
2019-03-09T03:12:47.998Z,99.99
2019-03-09T03:13:47.938Z,99.99
2019-03-09T03:14:47.886Z,99.99
2019-03-09T03:15:47.842Z,99.99
2019-03-09T03:16:47.793Z,99.99
2019-03-09T03:17:47.739Z,99.99
2019-03-09T03:18:47.780Z,99.99
2019-03-09T03:19:47.661Z,99.99
2019-03-09T03:20:47.595Z,99.99
2019-03-09T03:21:47.566Z,99.99
2019-03-09T03:22:47.500Z,99.99
2019-03-09T03:23:47.466Z,99.99
2019-03-09T03:24:47.407Z,99.99
2019-03-09T03:25:47.363Z,99.99
2019-03-09T03:26:47.307Z,99.99
2019-03-09T03:27:47.262Z,99.99
2019-03-09T03:28:47.213Z,99.99
2019-03-09T03:29:47.165Z,99.99
2019-03-09T03:30:47.119Z,99.99
2019-03-09T03:31:47.067Z,99.99
2019-03-09T03:32:47.032Z,99.99
2019-03-09T03:33:46.970Z,99.99
2019-03-09T03:34:46.923Z,99.99
2019-03-09T03:35:46.871Z,99.99
2019-03-09T03:36:46.833Z,99.99
2019-03-09T03:37:46.777Z,99.99
2019-03-09T03:38:46.738Z,99.99
2019-03-09T03:39:46.679Z,99.99
2019-03-09T03:40:46.632Z,99.99
2019-03-09T03:41:46.587Z,99.99
2019-03-09T03:42:46.536Z,99.99
2019-03-09T03:43:46.488Z,99.99
2019-03-09T03:44:46.445Z,99.99
2019-03-09T03:45:46.427Z,99.99
2019-03-09T03:46:46.342Z,99.99
2019-03-09T03:47:46.297Z,99.99
2019-03-09T03:48:46.246Z,99.99
2019-03-09T03:49:46.204Z,99.99
2019-03-09T03:50:46.153Z,99.99
2019-03-09T03:51:46.108Z,99.99
2019-03-09T03:52:46.057Z,99.99
2019-03-09T03:53:46.009Z,99.99
2019-03-09T03:54:45.961Z,99.99
2019-03-09T03:55:45.912Z,99.99
2019-03-09T03:56:47.331Z,99.99
2019-03-09T03:57:45.826Z,99.99
2019-03-09T03:58:45.765Z,99.99
2019-03-09T03:59:45.722Z,99.99
2019-03-09T04:00:45.675Z,99.99
2019-03-09T04:01:45.620Z,99.99
2019-03-09T04:02:45.573Z,99.99
2019-03-09T04:03:45.527Z,99.99
2019-03-09T04:04:45.556Z,99.99
2019-03-09T04:05:45.428Z,99.99
2019-03-09T04:06:45.383Z,99.99
2019-03-09T04:07:45.336Z,99.99
2019-03-09T04:08:45.284Z,99.99
2019-03-09T04:09:45.243Z,99.99
2019-03-09T04:10:45.189Z,99.99
2019-03-09T04:11:45.148Z,99.99
2019-03-09T04:12:45.102Z,99.99
2019-03-09T04:13:45.042Z,99.99
2019-03-09T04:14:44.995Z,99.99
2019-03-09T04:15:44.948Z,99.99
2019-03-09T04:16:44.898Z,99.99
2019-03-09T04:17:44.849Z,99.99
2019-03-09T04:18:44.801Z,99.99
2019-03-09T04:19:44.753Z,99.99
2019-03-09T04:20:44.706Z,99.99
2019-03-09T04:21:44.658Z,99.99
2019-03-09T04:22:44.609Z,99.99
2019-03-09T04:23:44.561Z,99.99
2019-03-09T04:24:44.513Z,99.99
2019-03-09T04:25:44.471Z,99.99
2019-03-09T04:26:44.422Z,99.99
2019-03-09T04:27:44.377Z,99.99
2019-03-09T04:28:44.321Z,99.99
2019-03-09T04:29:44.283Z,99.99
2019-03-09T04:30:44.228Z,99.99
2019-03-09T04:31:44.175Z,99.99
2019-03-09T04:32:44.132Z,99.99
2019-03-09T04:33:44.082Z,99.99
2019-03-09T04:34:44.032Z,99.99
2019-03-09T04:35:43.985Z,99.99
2019-03-09T04:36:43.940Z,99.99
2019-03-09T04:37:43.890Z,99.99
2019-03-09T04:38:43.843Z,99.99
2019-03-09T04:39:43.805Z,99.99
2019-03-09T04:40:43.748Z,99.99
2019-03-09T04:41:43.697Z,99.99
2019-03-09T04:42:43.650Z,99.99
2019-03-09T04:43:43.604Z,99.99
2019-03-09T04:44:43.553Z,99.99
2019-03-09T04:45:43.505Z,99.99
2019-03-09T04:46:43.459Z,99.99
2019-03-09T04:47:43.409Z,99.99
2019-03-09T04:48:43.363Z,99.99
2019-03-09T04:49:43.314Z,99.99
2019-03-09T04:50:43.264Z,99.99
2019-03-09T04:51:43.218Z,99.99
2019-03-09T04:52:43.171Z,99.99
2019-03-09T04:53:43.124Z,99.99
2019-03-09T04:54:43.072Z,99.99
2019-03-09T04:55:43.029Z,99.99
2019-03-09T04:56:42.977Z,99.99
2019-03-09T04:57:42.932Z,99.99
2019-03-09T04:58:42.883Z,99.99
2019-03-09T04:59:42.833Z,99.99
2019-03-09T05:00:42.784Z,99.99
2019-03-09T05:01:42.735Z,99.99
2019-03-09T05:02:42.701Z,99.99
2019-03-09T05:03:42.639Z,99.99
2019-03-09T05:04:42.592Z,99.99
2019-03-09T05:05:42.546Z,99.99
2019-03-09T05:06:42.495Z,99.99
2019-03-09T05:07:42.447Z,99.99
2019-03-09T05:08:42.400Z,99.99
2019-03-09T05:09:42.353Z,99.99
2019-03-09T05:10:42.308Z,99.99
2019-03-09T05:11:42.261Z,99.99
2019-03-09T05:12:42.213Z,99.99
2019-03-09T05:13:42.163Z,99.99
2019-03-09T05:14:42.116Z,99.99
2019-03-09T05:15:42.067Z,99.99
2019-03-09T05:16:42.020Z,99.99
2019-03-09T05:17:41.991Z,99.99
2019-03-09T05:18:41.927Z,99.99
2019-03-09T05:19:41.876Z,99.99
2019-03-09T05:20:41.827Z,99.99
2019-03-09T05:21:41.780Z,99.99
2019-03-09T05:22:41.733Z,99.99
2019-03-09T05:23:41.687Z,99.99
2019-03-09T05:24:41.636Z,99.99
2019-03-09T05:25:41.589Z,99.99
2019-03-09T05:26:41.541Z,99.99
2019-03-09T05:27:41.493Z,99.99
2019-03-09T05:28:41.445Z,99.99
2019-03-09T05:29:41.401Z,99.99
2019-03-09T05:30:41.351Z,99.99
2019-03-09T05:31:41.300Z,99.99
2019-03-09T05:32:41.257Z,99.99
2019-03-09T05:33:41.205Z,99.99
2019-03-09T05:34:41.155Z,99.99
2019-03-09T05:35:41.120Z,99.99
2019-03-09T05:36:41.066Z,99.99
2019-03-09T05:37:43.367Z,99.99
2019-03-09T05:38:40.966Z,99.99
2019-03-09T05:39:40.921Z,99.99
2019-03-09T05:40:40.877Z,99.99
2019-03-09T05:41:40.822Z,99.99
2019-03-09T05:42:40.773Z,99.99
2019-03-09T05:43:40.727Z,99.99
2019-03-09T05:44:40.681Z,99.99
2019-03-09T05:45:40.631Z,99.99
2019-03-09T05:46:40.582Z,99.99
2019-03-09T05:47:40.534Z,99.99
2019-03-09T05:48:40.490Z,99.99
2019-03-09T05:49:40.442Z,99.99
2019-03-09T05:50:40.390Z,99.99
2019-03-09T05:51:40.347Z,99.99
2019-03-09T05:52:40.297Z,99.99
2019-03-09T05:53:40.249Z,99.99
2019-03-09T05:54:40.202Z,99.99
2019-03-09T05:55:40.159Z,99.99
2019-03-09T05:56:40.105Z,99.99
2019-03-09T05:57:40.083Z,99.99
2019-03-09T05:58:40.010Z,99.99
2019-03-09T05:59:39.964Z,99.99
2019-03-09T06:00:39.917Z,99.99
2019-03-09T06:01:39.866Z,99.99
2019-03-09T06:02:39.833Z,99.99
2019-03-09T06:03:39.771Z,99.99
2019-03-09T06:04:39.722Z,99.99
2019-03-09T06:05:39.679Z,99.99
2019-03-09T06:06:39.626Z,99.99
2019-03-09T06:07:39.583Z,99.99
2019-03-09T06:08:39.533Z,99.99
2019-03-09T06:09:39.486Z,99.99
2019-03-09T06:10:39.434Z,99.99
2019-03-09T06:11:39.386Z,99.99
2019-03-09T06:12:39.472Z,99.99
2019-03-09T06:13:39.376Z,99.99
2019-03-09T06:14:39.254Z,99.99
2019-03-09T06:15:39.252Z,99.99
2019-03-09T06:16:39.258Z,99.99
2019-03-09T06:17:39.131Z,99.99
2019-03-09T06:18:39.136Z,99.99
2019-03-09T06:19:39.014Z,99.99
2019-03-09T06:20:39.011Z,99.99
2019-03-09T06:21:39.010Z,99.99
2019-03-09T06:22:38.894Z,99.99
2019-03-09T06:23:38.890Z,99.99
2019-03-09T06:24:38.771Z,99.99
2019-03-09T06:25:38.782Z,99.99
2019-03-09T06:26:38.771Z,99.99
2019-03-09T06:27:38.649Z,99.99
2019-03-09T06:28:38.661Z,99.99
2019-03-09T06:29:38.532Z,99.99
2019-03-09T06:30:38.529Z,99.99
2019-03-09T06:31:38.528Z,99.99
2019-03-09T06:32:38.411Z,99.99
2019-03-09T06:33:38.410Z,99.99
2019-03-09T06:34:38.407Z,99.99
2019-03-09T06:35:38.307Z,99.99
2019-03-09T06:36:38.290Z,99.99
2019-03-09T06:37:38.179Z,99.99
2019-03-09T06:38:38.172Z,99.99
2019-03-09T06:39:38.130Z,99.99
2019-03-09T06:40:38.053Z,99.99
2019-03-09T06:41:38.097Z,99.99
2019-03-09T06:42:37.929Z,99.99
2019-03-09T06:43:37.926Z,99.99
2019-03-09T06:44:37.930Z,99.99
2019-03-09T06:45:37.889Z,99.99
2019-03-09T06:46:37.805Z,99.99
2019-03-09T06:47:37.691Z,99.99
2019-03-09T06:48:37.686Z,99.99
2019-03-09T06:49:37.686Z,99.99
2019-03-09T06:50:37.565Z,99.99
2019-03-09T06:51:37.569Z,99.99
2019-03-09T06:52:37.446Z,99.99
2019-03-09T06:53:37.446Z,99.99
2019-03-09T06:54:37.446Z,99.99
2019-03-09T06:55:37.327Z,99.99
2019-03-09T06:56:37.330Z,99.99
2019-03-09T06:57:37.203Z,99.99
2019-03-09T06:58:37.207Z,99.99
2019-03-09T06:59:37.203Z,99.99
2019-03-09T07:00:37.084Z,99.99
2019-03-09T07:01:37.082Z,99.99
2019-03-09T07:02:36.962Z,99.99
2019-03-09T07:03:36.968Z,99.99
2019-03-09T07:04:36.970Z,99.99
2019-03-09T07:05:36.843Z,99.99
2019-03-09T07:06:36.843Z,99.99
2019-03-09T07:07:36.721Z,99.99
2019-03-09T07:08:36.721Z,99.99
2019-03-09T07:09:36.724Z,99.99
2019-03-09T07:10:36.605Z,99.99
2019-03-09T07:11:36.599Z,99.99
2019-03-09T07:12:36.483Z,99.99
2019-03-09T07:13:36.481Z,99.99
2019-03-09T07:14:36.487Z,99.99
2019-03-09T07:15:36.361Z,99.99
2019-03-09T07:16:36.360Z,99.99
2019-03-09T07:17:36.322Z,99.99
2019-03-09T07:18:36.264Z,99.99
2019-03-09T07:19:36.239Z,99.99
2019-03-09T07:20:36.120Z,99.99
2019-03-09T07:21:36.116Z,99.99
2019-03-09T07:22:36.121Z,99.99
2019-03-09T07:23:36.005Z,99.99
2019-03-09T07:24:35.999Z,99.99
2019-03-09T07:25:35.887Z,99.99
2019-03-09T07:26:35.879Z,99.99
2019-03-09T07:27:35.898Z,99.99
2019-03-09T07:28:35.756Z,99.99
2019-03-09T07:29:35.757Z,99.99
2019-03-09T07:30:35.756Z,99.99
2019-03-09T07:31:35.760Z,99.99
2019-03-09T07:32:35.719Z,99.99
2019-03-09T07:33:35.633Z,99.99
2019-03-09T07:34:35.611Z,99.99
2019-03-09T07:35:35.396Z,99.99
2019-03-09T07:36:35.396Z,99.99
2019-03-09T07:37:36.977Z,99.99
2019-03-09T07:38:35.274Z,99.99
2019-03-09T07:39:35.273Z,99.99
2019-03-09T07:40:35.157Z,99.99
2019-03-09T07:41:35.154Z,99.99
2019-03-09T07:42:35.153Z,99.99
2019-03-09T07:43:35.033Z,99.99
2019-03-09T07:44:35.034Z,99.99
2019-03-09T07:45:34.994Z,99.99
2019-03-09T07:46:34.917Z,99.99
2019-03-09T07:47:34.918Z,99.99
2019-03-09T07:48:34.791Z,99.99
2019-03-09T07:49:34.793Z,99.99
2019-03-09T07:50:34.791Z,99.99
2019-03-09T07:51:34.669Z,99.99
2019-03-09T07:52:34.672Z,99.99
2019-03-09T07:53:34.555Z,99.99
2019-03-09T07:54:34.552Z,99.99
2019-03-09T07:55:34.554Z,99.99
2019-03-09T07:56:34.429Z,99.99
2019-03-09T07:57:34.429Z,99.99
2019-03-09T07:58:34.314Z,99.99
2019-03-09T07:59:34.309Z,99.99
2019-03-09T08:00:34.314Z,99.99
2019-03-09T08:01:34.189Z,99.99
2019-03-09T08:02:34.189Z,99.99
2019-03-09T08:03:34.068Z,99.99
2019-03-09T08:04:34.067Z,99.99
2019-03-09T08:05:34.070Z,99.99
2019-03-09T08:06:33.947Z,99.99
2019-03-09T08:07:33.946Z,99.99
2019-03-09T08:08:33.829Z,99.99
2019-03-09T08:09:33.830Z,99.99
2019-03-09T08:10:33.832Z,99.99
2019-03-09T08:11:33.705Z,99.99
2019-03-09T08:12:33.707Z,99.99
2019-03-09T08:13:33.704Z,99.99
2019-03-09T08:14:33.587Z,99.99
2019-03-09T08:15:33.589Z,99.99
2019-03-09T08:16:35.904Z,99.99
2019-03-09T08:17:33.464Z,99.99
2019-03-09T08:18:33.464Z,99.99
2019-03-09T08:19:33.345Z,99.99
2019-03-09T08:20:33.352Z,99.99
2019-03-09T08:21:33.240Z,99.99
2019-03-09T08:22:33.223Z,99.99
2019-03-09T08:23:33.227Z,99.99
2019-03-09T08:24:33.115Z,99.99
2019-03-09T08:25:33.106Z,99.99
2019-03-09T08:26:32.990Z,99.99
2019-03-09T08:27:33.005Z,99.99
2019-03-09T08:28:32.992Z,99.99
2019-03-09T08:29:32.874Z,99.99
2019-03-09T08:30:32.862Z,99.99
2019-03-09T08:31:32.752Z,99.99
2019-03-09T08:32:32.744Z,99.99
2019-03-09T08:33:32.740Z,99.99
2019-03-09T08:34:32.624Z,99.99
2019-03-09T08:35:32.621Z,99.99
2019-03-09T08:36:34.895Z,99.99
2019-03-09T08:37:32.502Z,99.99
2019-03-09T08:38:32.507Z,99.99
2019-03-09T08:39:32.390Z,99.99
2019-03-09T08:40:32.381Z,99.99
2019-03-09T08:41:32.396Z,99.99
2019-03-09T08:42:32.284Z,99.99
2019-03-09T08:43:32.273Z,99.99
2019-03-09T08:44:32.166Z,99.99
2019-03-09T08:45:32.149Z,99.99
2019-03-09T08:46:32.150Z,99.99
2019-03-09T08:47:32.028Z,99.99
2019-03-09T08:48:32.054Z,99.99
2019-03-09T08:49:31.907Z,99.99
2019-03-09T08:50:31.938Z,99.99
2019-03-09T08:51:31.918Z,99.99
2019-03-09T08:52:31.806Z,99.99
2019-03-09T08:53:31.814Z,99.99
2019-03-09T08:54:31.657Z,99.99
2019-03-09T08:55:31.660Z,99.99
2019-03-09T08:56:33.446Z,99.99
2019-03-09T08:57:31.547Z,99.99
2019-03-09T08:58:31.546Z,99.99
2019-03-09T08:59:31.563Z,99.99
2019-03-09T09:00:31.419Z,99.99
2019-03-09T09:01:31.444Z,99.99
2019-03-09T09:02:31.295Z,99.99
2019-03-09T09:03:31.295Z,99.99
2019-03-09T09:04:31.294Z,99.99
2019-03-09T09:05:31.183Z,99.99
2019-03-09T09:06:31.436Z,99.99
2019-03-09T09:07:31.077Z,99.99
2019-03-09T09:08:31.072Z,99.99
2019-03-09T09:09:31.082Z,99.99
2019-03-09T09:10:30.933Z,99.99
2019-03-09T09:11:30.934Z,99.99
2019-03-09T09:12:30.814Z,99.99
2019-03-09T09:13:30.814Z,99.99
2019-03-09T09:14:30.819Z,99.99
2019-03-09T09:15:30.719Z,99.99
2019-03-09T09:16:30.697Z,99.99
2019-03-09T09:17:30.697Z,99.99
2019-03-09T09:18:30.569Z,99.99
2019-03-09T09:19:30.571Z,99.99
2019-03-09T09:20:30.452Z,99.99
2019-03-09T09:21:30.452Z,99.99
2019-03-09T09:22:30.458Z,99.99
2019-03-09T09:23:30.331Z,99.99
2019-03-09T09:24:30.337Z,99.99
2019-03-09T09:25:30.211Z,99.99
2019-03-09T09:26:30.210Z,99.99
2019-03-09T09:27:30.219Z,99.99
2019-03-09T09:28:30.090Z,99.99
2019-03-09T09:29:30.097Z,99.99
2019-03-09T09:30:30.060Z,99.99
2019-03-09T09:31:29.969Z,99.99
2019-03-09T09:32:29.972Z,99.99
2019-03-09T09:33:29.850Z,99.99
2019-03-09T09:34:29.847Z,99.99
2019-03-09T09:35:29.854Z,99.99
2019-03-09T09:36:29.727Z,99.99
2019-03-09T09:37:29.726Z,99.99
2019-03-09T09:38:29.633Z,99.99
2019-03-09T09:39:29.606Z,99.99
2019-03-09T09:40:29.607Z,99.99
2019-03-09T09:41:29.487Z,99.99
2019-03-09T09:42:29.488Z,99.99
2019-03-09T09:43:29.368Z,99.99
2019-03-09T09:44:29.366Z,99.99
2019-03-09T09:45:29.370Z,99.99
2019-03-09T09:46:29.249Z,99.99
2019-03-09T09:47:29.245Z,99.99
2019-03-09T09:48:29.242Z,99.99
2019-03-09T09:49:29.122Z,99.99
2019-03-09T09:50:29.123Z,99.99
2019-03-09T09:51:29.004Z,99.99
2019-03-09T09:52:29.003Z,99.99
2019-03-09T09:53:29.004Z,99.99
2019-03-09T09:54:28.886Z,99.99
2019-03-09T09:55:28.881Z,99.99
2019-03-09T09:56:28.767Z,99.99
2019-03-09T09:57:28.769Z,99.99
2019-03-09T09:58:28.781Z,99.99
2019-03-09T09:59:28.642Z,99.99
2019-03-09T10:00:28.644Z,99.99
2019-03-09T10:01:28.643Z,99.99
2019-03-09T10:02:28.525Z,99.99
2019-03-09T10:03:28.521Z,99.99
2019-03-09T10:04:28.399Z,99.99
2019-03-09T10:05:28.403Z,99.99
2019-03-09T10:06:28.400Z,99.99
2019-03-09T10:07:28.282Z,99.99
2019-03-09T10:08:28.281Z,99.99
2019-03-09T10:09:28.159Z,99.99
2019-03-09T10:10:29.824Z,99.99
2019-03-09T10:11:28.164Z,99.99
2019-03-09T10:12:28.041Z,99.99
2019-03-09T10:13:28.134Z,99.99
2019-03-09T10:14:28.042Z,99.99
2019-03-09T10:15:27.919Z,99.99
2019-03-09T10:16:27.918Z,99.99
2019-03-09T10:17:27.806Z,99.99
2019-03-09T10:18:27.797Z,99.99
2019-03-09T10:19:27.799Z,99.99
2019-03-09T10:20:27.676Z,99.99
2019-03-09T10:21:27.679Z,99.99
2019-03-09T10:22:27.557Z,99.99
2019-03-09T10:23:27.555Z,99.99
2019-03-09T10:24:27.562Z,99.99
2019-03-09T10:25:27.433Z,99.99
2019-03-09T10:26:27.435Z,99.99
2019-03-09T10:27:27.400Z,99.99
2019-03-09T10:28:27.314Z,99.99
2019-03-09T10:29:27.316Z,99.99
2019-03-09T10:30:27.194Z,99.99
2019-03-09T10:31:27.193Z,99.99
2019-03-09T10:32:27.193Z,99.99
2019-03-09T10:33:27.074Z,99.99
2019-03-09T10:34:27.073Z,99.99
2019-03-09T10:35:26.951Z,99.99
2019-03-09T10:36:26.951Z,99.99
2019-03-09T10:37:26.951Z,99.99
2019-03-09T10:38:28.119Z,99.99
2019-03-09T10:39:26.830Z,99.99
2019-03-09T10:40:26.714Z,99.99
2019-03-09T10:41:26.711Z,99.99
2019-03-09T10:42:26.721Z,99.99
2019-03-09T10:43:26.590Z,99.99
2019-03-09T10:44:26.595Z,99.99
2019-03-09T10:45:26.590Z,99.99
2019-03-09T10:46:26.478Z,99.99
2019-03-09T10:47:26.470Z,99.99
2019-03-09T10:48:26.352Z,99.99
2019-03-09T10:49:26.353Z,99.99
2019-03-09T10:50:26.352Z,99.99
2019-03-09T10:51:26.315Z,99.99
2019-03-09T10:52:26.230Z,99.99
2019-03-09T10:53:26.127Z,99.99
2019-03-09T10:54:35.564Z,99.99
2019-03-09T10:55:26.191Z,99.99
2019-03-09T10:56:25.990Z,99.99
2019-03-09T10:57:25.990Z,99.99
2019-03-09T10:58:25.993Z,99.99
2019-03-09T10:59:25.867Z,99.99
2019-03-09T11:00:25.869Z,99.99
2019-03-09T11:01:25.751Z,99.99
2019-03-09T11:02:25.750Z,99.99
2019-03-09T11:03:25.754Z,99.99
2019-03-09T11:04:27.833Z,99.99
2019-03-09T11:05:25.625Z,99.99
2019-03-09T11:06:25.504Z,99.99
2019-03-09T11:07:25.510Z,99.99
2019-03-09T11:08:25.509Z,99.99
2019-03-09T11:09:25.388Z,99.99
2019-03-09T11:10:25.389Z,99.99
2019-03-09T11:11:25.387Z,99.61
2019-03-09T11:12:25.264Z,99.99
2019-03-09T11:13:25.266Z,99.99
2019-03-09T11:14:25.145Z,99.32
2019-03-09T11:15:25.150Z,99.71
2019-03-09T11:16:25.144Z,99.80
2019-03-09T11:17:25.026Z,98.94
2019-03-09T11:18:25.031Z,97.51
2019-03-09T11:19:24.994Z,96.94
2019-03-09T11:20:24.908Z,96.84
2019-03-09T11:21:24.905Z,97.22
2019-03-09T11:22:24.787Z,96.75
2019-03-09T11:23:24.830Z,96.94
2019-03-09T11:24:24.785Z,96.56
2019-03-09T11:25:24.670Z,97.32
2019-03-09T11:26:24.662Z,97.32
2019-03-09T11:27:24.542Z,97.51
2019-03-09T11:28:24.545Z,96.94
2019-03-09T11:29:24.543Z,96.75
2019-03-09T11:30:24.427Z,95.98
2019-03-09T11:31:24.427Z,95.41
2019-03-09T11:32:24.428Z,94.46
2019-03-09T11:33:24.360Z,93.70
2019-03-09T11:34:24.305Z,93.31
2019-03-09T11:35:24.199Z,92.93
2019-03-09T11:36:24.181Z,93.31
2019-03-09T11:37:24.183Z,93.17
2019-03-09T11:38:24.060Z,92.88
2019-03-09T11:39:24.068Z,92.88
2019-03-09T11:40:23.949Z,92.60
2019-03-09T11:41:23.942Z,92.12
2019-03-09T11:42:23.938Z,92.21
2019-03-09T11:43:23.818Z,92.02
2019-03-09T11:44:23.818Z,91.74
2019-03-09T11:45:23.820Z,91.16
2019-03-09T11:46:23.700Z,91.16
2019-03-09T11:47:23.704Z,90.88
2019-03-09T11:48:23.580Z,89.92
2019-03-09T11:49:23.582Z,90.40
2019-03-09T11:50:23.581Z,90.21
2019-03-09T11:51:23.459Z,90.35
2019-03-09T11:52:23.459Z,89.16
2019-03-09T11:53:23.419Z,88.63
2019-03-09T11:54:23.666Z,88.34
2019-03-09T11:55:23.337Z,88.34
2019-03-09T11:56:23.214Z,88.44
2019-03-09T11:57:23.217Z,87.29
2019-03-09T11:58:23.214Z,86.63
2019-03-09T11:59:23.096Z,86.05
2019-03-09T12:00:23.094Z,86.43
2019-03-09T12:01:22.974Z,86.10
2019-03-09T12:02:22.977Z,86.00
2019-03-09T12:03:22.979Z,86.38
2019-03-09T12:04:22.853Z,84.19
2019-03-09T12:05:22.853Z,84.56
2019-03-09T12:06:22.855Z,83.61
2019-03-09T12:07:22.734Z,83.37
2019-03-09T12:08:22.734Z,82.89
2019-03-09T12:09:22.611Z,81.55
2019-03-09T12:10:22.616Z,82.03
2019-03-09T12:11:22.619Z,81.93
2019-03-09T12:12:22.498Z,82.03
2019-03-09T12:13:22.492Z,82.22
2019-03-09T12:14:22.494Z,80.98
2019-03-09T12:15:22.377Z,80.88
2019-03-09T12:16:22.374Z,80.88
2019-03-09T12:17:22.261Z,80.02
2019-03-09T12:18:22.248Z,79.44
2019-03-09T12:19:22.257Z,79.93
2019-03-09T12:20:22.213Z,80.50
2019-03-09T12:21:22.131Z,80.59
2019-03-09T12:22:22.143Z,80.11
2019-03-09T12:23:22.018Z,80.50
2019-03-09T12:24:22.015Z,79.35
2019-03-09T12:25:21.893Z,79.73
2019-03-09T12:26:21.887Z,77.34
2019-03-09T12:27:21.888Z,77.34
2019-03-09T12:28:21.774Z,77.06
2019-03-09T12:29:21.777Z,76.29
2019-03-09T12:30:24.771Z,76.20
2019-03-09T12:31:21.652Z,76.39
2019-03-09T12:32:21.650Z,75.34
2019-03-09T12:33:21.537Z,75.34
2019-03-09T12:34:21.531Z,76.00
2019-03-09T12:35:21.530Z,75.66
2019-03-09T12:36:21.406Z,73.88
2019-03-09T12:37:21.421Z,73.02
2019-03-09T12:38:21.413Z,71.87
2019-03-09T12:39:21.289Z,72.83
2019-03-09T12:40:21.290Z,73.65
2019-03-09T12:41:21.257Z,73.75
2019-03-09T12:42:21.166Z,74.07
2019-03-09T12:43:21.168Z,73.08
2019-03-09T12:44:21.058Z,72.88
2019-03-09T12:45:21.054Z,72.12
2019-03-09T12:46:21.051Z,72.47
2019-03-09T12:47:20.925Z,73.14
2019-03-09T12:48:20.929Z,73.52
2019-03-09T12:49:20.803Z,73.52
2019-03-09T12:50:20.806Z,74.38
2019-03-09T12:51:20.803Z,74.48
2019-03-09T12:52:20.803Z,74.28